Time,TemperatureF,DewpointF,PressureIn,WindDirection,WindDirectionDegrees,WindSpeedMPH,WindSpeedGustMPH,Humidity,HourlyPrecipIn,Conditions,Clouds,dailyrainin,SoftwareType,DateUTC
2013-03-02 00:01:00,71.0,63.0,30.16,NNE,18,13.0,19.0,76,0.00,,,0.00,,2013-03-02 10:01:00,
2013-03-02 00:21:00,71.0,63.0,30.16,NNE,30,12.0,20.0,77,0.00,,,0.00,,2013-03-02 10:21:00,
2013-03-02 00:31:00,71.0,63.0,30.16,NNE,14,10.0,17.0,75,0.00,,,0.00,,2013-03-02 10:31:00,
2013-03-02 00:42:00,71.0,63.0,30.16,NNE,14,10.0,17.0,75,0.00,,,0.00,,2013-03-02 10:42:00,
2013-03-02 00:52:00,71.0,62.0,30.16,NNW,338,13.0,19.0,73,0.00,,,0.00,,2013-03-02 10:52:00,
2013-03-02 01:01:00,71.0,62.0,30.16,North,6,11.0,19.0,74,0.00,,,0.00,,2013-03-02 11:01:00,
2013-03-02 01:11:00,71.0,62.0,30.16,North,6,11.0,19.0,74,0.00,,,0.00,,2013-03-02 11:11:00,
2013-03-02 01:21:00,71.0,62.0,30.15,ENE,60,12.0,19.0,73,0.00,,,0.00,,2013-03-02 11:21:00,
2013-03-02 01:31:00,71.0,62.0,30.15,NNE,16,11.0,17.0,73,0.00,,,0.00,,2013-03-02 11:31:00,
2013-03-02 01:41:00,71.0,62.0,30.15,NNE,16,11.0,17.0,73,0.00,,,0.00,,2013-03-02 11:41:00,
2013-03-02 01:52:00,70.0,61.0,30.15,NNW,332,6.0,15.0,72,0.00,,,0.00,,2013-03-02 11:52:00,
2013-03-02 02:02:00,70.0,61.0,30.15,NNW,347,9.0,14.0,73,0.00,,,0.00,,2013-03-02 12:02:00,
2013-03-02 02:11:00,70.0,61.0,30.15,NNW,347,9.0,14.0,73,0.00,,,0.00,,2013-03-02 12:11:00,
2013-03-02 02:21:00,70.0,60.0,30.14,NW,324,7.0,13.0,71,0.00,,,0.00,,2013-03-02 12:21:00,
2013-03-02 02:32:00,70.0,60.0,30.14,NNW,343,6.0,16.0,71,0.00,,,0.00,,2013-03-02 12:32:00,
2013-03-02 02:42:00,70.0,60.0,30.14,NNW,343,6.0,16.0,71,0.00,,,0.00,,2013-03-02 12:42:00,
2013-03-02 02:53:00,70.0,59.0,30.14,NNW,337,6.0,14.0,69,0.00,,,0.00,,2013-03-02 12:53:00,
2013-03-02 03:01:00,70.0,59.0,30.13,NNW,341,6.0,14.0,69,0.00,,,0.00,,2013-03-02 13:01:00,
2013-03-02 03:11:00,70.0,59.0,30.13,NNW,341,6.0,14.0,69,0.00,,,0.00,,2013-03-02 13:11:00,
2013-03-02 03:21:00,70.0,59.0,30.13,NNE,28,8.0,13.0,69,0.00,,,0.00,,2013-03-02 13:21:00,
2013-03-02 03:31:00,70.0,60.0,30.13,North,352,6.0,12.0,71,0.00,,,0.00,,2013-03-02 13:31:00,
2013-03-02 03:41:00,70.0,60.0,30.13,North,352,6.0,12.0,71,0.00,,,0.00,,2013-03-02 13:41:00,
2013-03-02 03:52:00,70.0,60.0,30.12,NNW,345,8.0,13.0,71,0.00,,,0.00,,2013-03-02 13:52:00,
2013-03-02 04:01:00,70.0,61.0,30.12,WNW,295,5.0,11.0,72,0.00,,,0.00,,2013-03-02 14:01:00,
2013-03-02 04:11:00,70.0,61.0,30.12,WNW,295,5.0,11.0,72,0.00,,,0.00,,2013-03-02 14:11:00,
2013-03-02 04:21:00,70.0,61.0,30.12,NNW,331,6.0,13.0,72,0.00,,,0.00,,2013-03-02 14:21:00,
2013-03-02 04:31:00,70.0,59.0,30.12,North,351,7.0,13.0,69,0.00,,,0.00,,2013-03-02 14:31:00,
2013-03-02 04:41:00,70.0,59.0,30.12,North,351,7.0,13.0,69,0.00,,,0.00,,2013-03-02 14:41:00,
2013-03-02 04:52:00,70.0,60.0,30.12,NNW,348,6.0,14.0,70,0.00,,,0.00,,2013-03-02 14:52:00,
2013-03-02 05:01:00,70.0,60.0,30.12,North,353,7.0,15.0,70,0.00,,,0.00,,2013-03-02 15:01:00,
2013-03-02 05:11:00,70.0,60.0,30.12,North,353,7.0,15.0,70,0.00,,,0.00,,2013-03-02 15:11:00,
2013-03-02 05:21:00,70.0,59.0,30.12,NNE,32,7.0,14.0,67,0.00,,,0.00,,2013-03-02 15:21:00,
2013-03-02 05:31:00,71.0,60.0,30.13,NNE,22,6.0,12.0,68,0.00,,,0.00,,2013-03-02 15:31:00,
2013-03-02 05:41:00,71.0,60.0,30.13,NNE,22,6.0,12.0,68,0.00,,,0.00,,2013-03-02 15:41:00,
2013-03-02 05:52:00,71.0,60.0,30.13,NNE,12,6.0,12.0,68,0.00,,,0.00,,2013-03-02 15:52:00,
2013-03-02 06:01:00,71.0,60.0,30.13,NNE,14,8.0,16.0,69,0.00,,,0.00,,2013-03-02 16:01:00,
2013-03-02 06:11:00,71.0,60.0,30.13,NNE,14,8.0,16.0,69,0.00,,,0.00,,2013-03-02 16:11:00,
2013-03-02 06:21:00,71.0,62.0,30.13,NNW,331,7.0,18.0,72,0.00,,,0.00,,2013-03-02 16:21:00,
2013-03-02 06:31:00,71.0,62.0,30.14,North,358,8.0,15.0,73,0.00,,,0.00,,2013-03-02 16:31:00,
2013-03-02 06:41:00,71.0,62.0,30.14,North,358,8.0,15.0,73,0.00,,,0.00,,2013-03-02 16:41:00,
2013-03-02 06:52:00,70.0,61.0,30.14,NE,50,5.0,13.0,73,0.00,,,0.00,,2013-03-02 16:52:00,
2013-03-02 07:01:00,70.0,60.0,30.14,North,6,7.0,13.0,71,0.00,,,0.00,,2013-03-02 17:01:00,
2013-03-02 07:11:00,70.0,60.0,30.14,North,6,7.0,13.0,71,0.00,,,0.00,,2013-03-02 17:11:00,
2013-03-02 07:21:00,71.0,61.0,30.14,NNE,31,11.0,17.0,70,0.00,,,0.00,,2013-03-02 17:21:00,
2013-03-02 07:31:00,71.0,62.0,30.15,NE,56,13.0,23.0,72,0.00,,,0.00,,2013-03-02 17:31:00,
2013-03-02 07:41:00,71.0,62.0,30.15,NE,56,13.0,23.0,72,0.00,,,0.00,,2013-03-02 17:41:00,
2013-03-02 07:52:00,71.0,61.0,30.16,North,2,8.0,15.0,71,0.00,,,0.00,,2013-03-02 17:52:00,
2013-03-02 08:01:00,71.0,62.0,30.16,NE,48,12.0,21.0,72,0.00,,,0.00,,2013-03-02 18:01:00,
2013-03-02 08:11:00,71.0,62.0,30.16,NE,48,12.0,21.0,72,0.00,,,0.00,,2013-03-02 18:11:00,
2013-03-02 08:21:00,72.0,62.0,30.16,NE,49,12.0,19.0,71,0.00,,,0.00,,2013-03-02 18:21:00,
2013-03-02 08:31:00,72.0,59.0,30.17,NE,41,7.0,13.0,64,0.00,,,0.00,,2013-03-02 18:31:00,
2013-03-02 08:41:00,72.0,59.0,30.17,NE,41,7.0,13.0,64,0.00,,,0.00,,2013-03-02 18:41:00,
2013-03-02 08:52:00,72.0,61.0,30.17,ENE,60,9.0,14.0,68,0.00,,,0.00,,2013-03-02 18:52:00,
2013-03-02 09:01:00,72.0,60.0,30.18,North,5,6.0,12.0,66,0.00,,,0.00,,2013-03-02 19:01:00,
2013-03-02 09:11:00,72.0,60.0,30.18,North,5,6.0,12.0,66,0.00,,,0.00,,2013-03-02 19:11:00,
2013-03-02 09:21:00,72.0,61.0,30.18,NNE,20,10.0,16.0,69,0.00,,,0.00,,2013-03-02 19:21:00,
2013-03-02 09:31:00,72.0,61.0,30.19,NNE,17,7.0,14.0,68,0.00,,,0.00,,2013-03-02 19:31:00,
2013-03-02 09:42:00,72.0,61.0,30.19,NNE,17,7.0,14.0,68,0.00,,,0.00,,2013-03-02 19:42:00,
2013-03-02 09:52:00,73.0,60.0,30.19,North,355,9.0,15.0,64,0.00,,,0.00,,2013-03-02 19:52:00,
2013-03-02 10:01:00,73.0,61.0,30.19,NNE,18,10.0,14.0,67,0.00,,,0.00,,2013-03-02 20:01:00,
2013-03-02 10:11:00,73.0,61.0,30.19,NNE,18,10.0,14.0,67,0.00,,,0.00,,2013-03-02 20:11:00,
2013-03-02 10:21:00,73.0,62.0,30.19,NNW,345,6.0,13.0,68,0.00,,,0.00,,2013-03-02 20:21:00,
2013-03-02 10:31:00,73.0,61.0,30.19,NNE,22,6.0,14.0,65,0.00,,,0.00,,2013-03-02 20:31:00,
2013-03-02 10:41:00,73.0,61.0,30.19,NNE,22,6.0,14.0,65,0.00,,,0.00,,2013-03-02 20:41:00,
2013-03-02 10:52:00,71.0,63.0,30.19,North,9,13.0,22.0,76,0.00,,,0.00,,2013-03-02 20:52:00,
2013-03-02 11:02:00,72.0,64.0,30.20,NW,325,6.0,14.0,75,0.00,,,0.00,,2013-03-02 21:02:00,
2013-03-02 11:11:00,72.0,64.0,30.20,NW,325,6.0,14.0,75,0.00,,,0.00,,2013-03-02 21:11:00,
2013-03-02 11:21:00,73.0,64.0,30.19,North,7,4.0,13.0,74,0.00,,,0.00,,2013-03-02 21:21:00,
2013-03-02 11:31:00,73.0,62.0,30.19,NNW,327,7.0,12.0,69,0.00,,,0.00,,2013-03-02 21:31:00,
2013-03-02 11:41:00,73.0,62.0,30.19,NNW,327,7.0,12.0,69,0.00,,,0.00,,2013-03-02 21:41:00,
2013-03-02 11:52:00,74.0,63.0,30.18,NNW,346,4.0,11.0,69,0.00,,,0.00,,2013-03-02 21:52:00,
2013-03-02 12:01:00,74.0,62.0,30.18,NW,326,5.0,11.0,67,0.00,,,0.00,,2013-03-02 22:01:00,
2013-03-02 12:11:00,74.0,62.0,30.18,NW,326,5.0,11.0,67,0.00,,,0.00,,2013-03-02 22:11:00,
2013-03-02 12:21:00,74.0,62.0,30.17,NW,318,5.0,13.0,66,0.00,,,0.00,,2013-03-02 22:21:00,
2013-03-02 12:31:00,75.0,62.0,30.16,WNW,299,7.0,13.0,65,0.00,,,0.00,,2013-03-02 22:31:00,
2013-03-02 12:42:00,75.0,62.0,30.16,WNW,299,7.0,13.0,65,0.00,,,0.00,,2013-03-02 22:42:00,
2013-03-02 12:52:00,74.0,62.0,30.15,NNW,331,9.0,13.0,67,0.00,,,0.00,,2013-03-02 22:52:00,
2013-03-02 13:01:00,75.0,64.0,30.14,North,351,6.0,15.0,68,0.00,,,0.00,,2013-03-02 23:01:00,
2013-03-02 13:11:00,74.0,64.0,30.14,North,10,7.0,13.0,71,0.00,,,0.00,,2013-03-02 23:11:00,
2013-03-02 13:21:00,74.0,64.0,30.14,North,10,7.0,13.0,71,0.00,,,0.00,,2013-03-02 23:21:00,
2013-03-02 13:31:00,75.0,65.0,30.13,North,355,7.0,11.0,71,0.00,,,0.00,,2013-03-02 23:31:00,
2013-03-02 13:41:00,75.0,65.0,30.13,North,355,7.0,11.0,71,0.00,,,0.00,,2013-03-02 23:41:00,
2013-03-02 13:52:00,75.0,65.0,30.12,North,2,6.0,11.0,70,0.00,,,0.00,,2013-03-02 23:52:00,
2013-03-02 14:02:00,76.0,65.0,30.11,NNW,343,5.0,12.0,69,0.00,,,0.00,,2013-03-03 00:02:00,
2013-03-02 14:11:00,76.0,65.0,30.11,NNW,343,5.0,12.0,69,0.00,,,0.00,,2013-03-03 00:11:00,
2013-03-02 14:22:00,76.0,65.0,30.11,NE,39,7.0,11.0,69,0.00,,,0.00,,2013-03-03 00:22:00,
2013-03-02 14:31:00,74.0,65.0,30.10,North,4,7.0,16.0,74,0.00,,,0.00,,2013-03-03 00:31:00,
2013-03-02 14:42:00,74.0,65.0,30.10,North,4,7.0,16.0,74,0.00,,,0.00,,2013-03-03 00:42:00,
2013-03-02 14:52:00,74.0,66.0,30.10,NNW,345,7.0,14.0,75,0.00,,,0.00,,2013-03-03 00:52:00,
2013-03-02 15:01:00,74.0,65.0,30.10,NE,46,4.0,11.0,74,0.00,,,0.00,,2013-03-03 01:01:00,
2013-03-02 15:11:00,74.0,65.0,30.10,NE,46,4.0,11.0,74,0.00,,,0.00,,2013-03-03 01:11:00,
2013-03-02 15:21:00,74.0,65.0,30.09,WNW,303,5.0,10.0,73,0.00,,,0.00,,2013-03-03 01:21:00,
2013-03-02 15:31:00,73.0,65.0,30.09,North,7,4.0,10.0,75,0.00,,,0.00,,2013-03-03 01:31:00,
2013-03-02 15:41:00,73.0,65.0,30.09,North,7,4.0,10.0,75,0.00,,,0.00,,2013-03-03 01:41:00,
2013-03-02 15:52:00,73.0,65.0,30.09,North,6,4.0,9.0,77,0.00,,,0.00,,2013-03-03 01:52:00,
2013-03-02 16:01:00,73.0,65.0,30.09,NNW,339,8.0,15.0,77,0.00,,,0.00,,2013-03-03 02:01:00,
2013-03-02 16:11:00,73.0,65.0,30.09,NNW,339,8.0,15.0,77,0.00,,,0.00,,2013-03-03 02:11:00,
2013-03-02 16:21:00,72.0,65.0,30.08,NNW,329,7.0,14.0,78,0.00,,,0.00,,2013-03-03 02:21:00,
2013-03-02 16:31:00,71.0,65.0,30.08,NW,313,5.0,13.0,80,0.00,,,0.00,,2013-03-03 02:31:00,
2013-03-02 16:41:00,71.0,65.0,30.08,NW,313,5.0,13.0,80,0.00,,,0.00,,2013-03-03 02:41:00,
2013-03-02 16:52:00,71.0,65.0,30.08,WNW,299,6.0,9.0,80,0.00,,,0.00,,2013-03-03 02:52:00,
2013-03-02 17:01:00,70.0,64.0,30.09,WNW,295,3.0,8.0,81,0.00,,,0.00,,2013-03-03 03:01:00,
2013-03-02 17:11:00,70.0,64.0,30.09,WNW,295,3.0,8.0,81,0.00,,,0.00,,2013-03-03 03:11:00,
2013-03-02 17:21:00,70.0,64.0,30.09,NW,314,3.0,7.0,81,0.00,,,0.00,,2013-03-03 03:21:00,
2013-03-02 17:31:00,70.0,64.0,30.09,NW,310,4.0,8.0,81,0.00,,,0.00,,2013-03-03 03:31:00,
2013-03-02 17:41:00,70.0,64.0,30.09,NW,310,4.0,8.0,81,0.00,,,0.00,,2013-03-03 03:41:00,
2013-03-02 17:52:00,70.0,64.0,30.10,WNW,295,4.0,9.0,81,0.00,,,0.00,,2013-03-03 03:52:00,
2013-03-02 18:01:00,70.0,64.0,30.10,WNW,302,4.0,7.0,81,0.00,,,0.00,,2013-03-03 04:01:00,
2013-03-02 18:11:00,70.0,64.0,30.10,WNW,302,4.0,7.0,81,0.00,,,0.00,,2013-03-03 04:11:00,
2013-03-02 18:21:00,70.0,64.0,30.10,NW,308,3.0,7.0,81,0.00,,,0.00,,2013-03-03 04:21:00,
2013-03-02 18:31:00,70.0,65.0,30.11,WNW,287,3.0,5.0,83,0.00,,,0.00,,2013-03-03 04:31:00,
2013-03-02 18:41:00,70.0,65.0,30.11,WNW,287,3.0,5.0,83,0.00,,,0.00,,2013-03-03 04:41:00,
2013-03-02 18:52:00,70.0,65.0,30.12,NNE,25,1.0,7.0,85,0.00,,,0.00,,2013-03-03 04:52:00,
2013-03-02 19:01:00,70.0,65.0,30.12,NNE,19,6.0,10.0,85,0.00,,,0.00,,2013-03-03 05:01:00,
2013-03-02 19:11:00,70.0,65.0,30.12,NNE,19,6.0,10.0,85,0.00,,,0.00,,2013-03-03 05:11:00,
2013-03-02 19:21:00,71.0,66.0,30.12,NNE,32,7.0,11.0,84,0.00,,,0.00,,2013-03-03 05:21:00,
2013-03-02 19:32:00,72.0,66.0,30.13,NE,41,11.0,14.0,82,0.00,,,0.00,,2013-03-03 05:32:00,
2013-03-02 19:42:00,72.0,66.0,30.13,NE,41,11.0,14.0,82,0.00,,,0.00,,2013-03-03 05:42:00,
2013-03-02 19:52:00,72.0,66.0,30.13,ENE,57,11.0,17.0,82,0.00,,,0.00,,2013-03-03 05:52:00,
2013-03-02 20:01:00,72.0,66.0,30.14,ENE,58,10.0,16.0,82,0.00,,,0.00,,2013-03-03 06:01:00,
2013-03-02 20:11:00,72.0,66.0,30.14,ENE,58,10.0,16.0,82,0.00,,,0.00,,2013-03-03 06:11:00,
2013-03-02 20:21:00,72.0,66.0,30.14,NE,49,11.0,16.0,82,0.00,,,0.00,,2013-03-03 06:21:00,
2013-03-02 20:31:00,72.0,66.0,30.15,ENE,65,11.0,16.0,82,0.00,,,0.00,,2013-03-03 06:31:00,
2013-03-02 20:42:00,72.0,66.0,30.15,ENE,65,11.0,16.0,82,0.00,,,0.00,,2013-03-03 06:42:00,
2013-03-02 20:52:00,72.0,66.0,30.15,NE,37,12.0,17.0,81,0.00,,,0.00,,2013-03-03 06:52:00,
2013-03-02 21:01:00,72.0,67.0,30.16,East,98,13.0,18.0,83,0.00,,,0.00,,2013-03-03 07:01:00,
2013-03-02 21:11:00,72.0,67.0,30.16,East,98,13.0,18.0,83,0.00,,,0.00,,2013-03-03 07:11:00,
2013-03-02 21:21:00,72.0,66.0,30.16,ENE,61,11.0,18.0,81,0.00,,,0.00,,2013-03-03 07:21:00,
2013-03-02 21:31:00,72.0,65.0,30.17,ENE,61,13.0,20.0,80,0.00,,,0.00,,2013-03-03 07:31:00,
2013-03-02 21:42:00,72.0,65.0,30.17,ENE,61,13.0,20.0,80,0.00,,,0.00,,2013-03-03 07:42:00,
2013-03-02 21:52:00,72.0,65.0,30.17,ENE,59,12.0,20.0,80,0.00,,,0.00,,2013-03-03 07:52:00,
2013-03-02 22:01:00,72.0,65.0,30.17,NE,45,15.0,19.0,79,0.00,,,0.00,,2013-03-03 08:01:00,
2013-03-02 22:11:00,72.0,65.0,30.17,NE,45,15.0,19.0,79,0.00,,,0.00,,2013-03-03 08:11:00,
2013-03-02 22:21:00,72.0,65.0,30.17,East,81,12.0,20.0,80,0.00,,,0.00,,2013-03-03 08:21:00,
2013-03-02 22:31:00,72.0,65.0,30.18,ENE,62,16.0,20.0,80,0.00,,,0.00,,2013-03-03 08:31:00,
2013-03-02 22:41:00,72.0,65.0,30.18,ENE,62,16.0,20.0,80,0.00,,,0.00,,2013-03-03 08:41:00,
2013-03-02 22:53:00,72.0,65.0,30.18,ENE,58,16.0,24.0,80,0.00,,,0.00,,2013-03-03 08:53:00,
2013-03-02 23:01:00,72.0,65.0,30.18,NE,55,13.0,21.0,80,0.00,,,0.00,,2013-03-03 09:01:00,
2013-03-02 23:11:00,72.0,65.0,30.18,NE,55,13.0,21.0,80,0.00,,,0.00,,2013-03-03 09:11:00,
2013-03-02 23:21:00,72.0,66.0,30.18,NE,52,15.0,24.0,81,0.00,,,0.00,,2013-03-03 09:21:00,
2013-03-02 23:31:00,71.0,65.0,30.18,ENE,60,11.0,19.0,81,0.00,,,0.00,,2013-03-03 09:31:00,
2013-03-02 23:41:00,71.0,65.0,30.18,ENE,60,11.0,19.0,81,0.00,,,0.00,,2013-03-03 09:41:00,
2013-03-02 23:52:00,71.0,65.0,30.19,NE,54,14.0,18.0,81,0.00,,,0.00,,2013-03-03 09:52:00,